Time;durP1;ratioP1;P1;durP2;ratioP2;P2;SDS_P1;SDS_P2;PMS_P1;PMS_P2;Temp;Humidity;BMP_temperature;BMP_pressure;BME280_temperature;BME280_humidity;BME280_pressure;Samples;Min_cycle;Max_cycle;Signal;HPM_P1;HPM_P2
2021/01/30 00:01:40;;;;;;;1.23;0.70;;;5.60;99.90;;;;;;5095186;28;20440;-83
2021/01/30 00:04:06;;;;;;;0.97;0.80;;;5.60;99.90;;;;;;5095139;28;20436;-77
2021/01/30 00:06:33;;;;;;;2.10;0.87;;;5.60;99.90;;;;;;5094940;28;20449;-84
2021/01/30 00:08:59;;;;;;;1.07;0.60;;;5.60;99.90;;;;;;5092902;28;20445;-77
2021/01/30 00:11:25;;;;;;;0.50;0.50;;;5.50;99.90;;;;;;5094437;28;20998;-82
2021/01/30 00:13:52;;;;;;;3.20;0.43;;;5.50;99.90;;;;;;5094473;28;20448;-78
2021/01/30 00:16:18;;;;;;;1.57;0.50;;;5.50;99.90;;;;;;5094119;28;20455;-83
2021/01/30 00:18:45;;;;;;;1.43;0.50;;;5.50;99.90;;;;;;5094095;28;20443;-77
2021/01/30 00:21:11;;;;;;;1.50;0.50;;;5.50;99.90;;;;;;5094570;28;20447;-78
2021/01/30 00:23:37;;;;;;;1.70;0.47;;;5.50;99.90;;;;;;5094607;28;20447;-78
2021/01/30 00:26:03;;;;;;;0.57;0.57;;;5.50;99.90;;;;;;5094540;28;20533;-78
2021/01/30 00:28:30;;;;;;;0.40;0.40;;;5.50;99.90;;;;;;5094368;28;20501;-77
2021/01/30 00:30:57;;;;;;;0.60;0.60;;;5.40;99.90;;;;;;5093849;28;20983;-83
2021/01/30 00:33:23;;;;;;;2.70;0.60;;;5.40;99.90;;;;;;5094114;28;20542;-82
2021/01/30 00:35:49;;;;;;;1.43;0.70;;;5.40;99.90;;;;;;5094696;28;20444;-83
2021/01/30 00:38:15;;;;;;;0.80;0.50;;;5.40;99.90;;;;;;5093548;28;20448;-77
2021/01/30 00:40:41;;;;;;;0.50;0.50;;;5.40;99.90;;;;;;5094242;28;20469;-83
2021/01/30 00:43:08;;;;;;;0.93;0.60;;;5.40;99.90;;;;;;5094078;28;20440;-83
2021/01/30 00:45:34;;;;;;;0.40;0.40;;;5.40;99.90;;;;;;5094304;28;20448;-78
2021/01/30 00:48:01;;;;;;;0.90;0.50;;;5.40;99.90;;;;;;5093849;28;20838;-84
2021/01/30 00:50:27;;;;;;;2.40;0.70;;;5.40;99.90;;;;;;5093943;28;20835;-82
2021/01/30 00:52:54;;;;;;;3.30;0.90;;;5.40;99.90;;;;;;5094245;28;20483;-84
2021/01/30 00:55:22;;;;;;;0.90;0.50;;;5.40;99.90;;;;;;5093756;28;20448;-84
2021/01/30 00:57:48;;;;;;;0.50;0.50;;;5.40;99.90;;;;;;5093470;28;20447;-77
2021/01/30 01:00:17;;;;;;;0.53;0.50;;;5.30;99.90;;;;;;5093837;28;20480;-77
2021/01/30 01:02:43;;;;;;;0.50;0.50;;;5.30;99.90;;;;;;5092894;28;21020;-84
2021/01/30 01:05:13;;;;;;;1.13;0.50;;;5.40;99.90;;;;;;5092656;28;20528;-78
2021/01/30 01:07:39;;;;;;;1.43;0.57;;;5.40;99.90;;;;;;5093157;28;20978;-78
2021/01/30 01:10:06;;;;;;;1.97;0.70;;;5.30;99.90;;;;;;5093560;28;20468;-85
2021/01/30 01:12:33;;;;;;;0.70;0.50;;;5.40;99.90;;;;;;5093159;28;21020;-85
2021/01/30 01:14:59;;;;;;;1.20;0.60;;;5.40;99.90;;;;;;5093713;28;20420;-84
2021/01/30 01:17:25;;;;;;;0.50;0.40;;;5.40;99.90;;;;;;5093510;28;20444;-85
2021/01/30 01:19:51;;;;;;;0.43;0.43;;;5.40;99.90;;;;;;5093855;28;20475;-84
2021/01/30 01:22:18;;;;;;;0.83;0.50;;;5.50;99.90;;;;;;5092874;28;20841;-79
2021/01/30 01:24:44;;;;;;;1.13;0.60;;;5.50;99.90;;;;;;5093019;28;20454;-79
2021/01/30 01:27:11;;;;;;;1.40;0.60;;;5.50;99.90;;;;;;5092862;28;20484;-79
2021/01/30 01:29:37;;;;;;;0.50;0.50;;;5.50;99.90;;;;;;5093437;28;20849;-84
2021/01/30 01:32:04;;;;;;;0.90;0.50;;;5.60;99.90;;;;;;5092881;28;20471;-79
2021/01/30 01:34:30;;;;;;;0.40;0.40;;;5.70;99.90;;;;;;5093144;28;21061;-85
2021/01/30 01:36:59;;;;;;;0.40;0.30;;;5.60;99.90;;;;;;5093240;28;20440;-79
2021/01/30 01:39:28;;;;;;;0.60;0.40;;;5.70;99.90;;;;;;5092628;28;21001;-84
2021/01/30 01:42:01;;;;;;;0.40;0.40;;;5.70;99.90;;;;;;5093174;28;20456;-85
2021/01/30 01:44:27;;;;;;;0.40;0.40;;;5.70;99.90;;;;;;5093582;28;20514;-79
2021/01/30 01:46:54;;;;;;;2.40;0.50;;;5.70;99.90;;;;;;5092918;28;20447;-84
2021/01/30 01:49:28;;;;;;;1.27;0.50;;;5.60;99.90;;;;;;5093259;28;20464;-85
2021/01/30 01:52:15;;;;;;;0.40;0.40;;;5.60;99.90;;;;;;5092893;28;20471;-85
2021/01/30 01:54:43;;;;;;;0.60;0.40;;;5.60;99.90;;;;;;5082292;28;20440;-85
2021/01/30 01:57:12;;;;;;;0.40;0.40;;;5.60;99.90;;;;;;5093194;28;20439;-79
2021/01/30 01:59:42;;;;;;;0.63;0.40;;;5.60;99.90;;;;;;5093246;28;20466;-84
2021/01/30 02:02:10;;;;;;;0.50;0.40;;;5.50;99.90;;;;;;5093068;28;20808;-84
2021/01/30 02:04:36;;;;;;;0.87;0.40;;;5.50;99.90;;;;;;5093106;28;20436;-79
2021/01/30 02:07:04;;;;;;;0.40;0.40;;;5.50;99.90;;;;;;5092856;28;20443;-79
2021/01/30 02:09:30;;;;;;;0.40;0.33;;;5.50;99.90;;;;;;5092766;28;20468;-84
2021/01/30 02:12:05;;;;;;;0.40;0.40;;;5.50;99.90;;;;;;5092914;28;20471;-79
2021/01/30 02:14:37;;;;;;;1.13;0.30;;;5.50;99.90;;;;;;5092036;28;20954;-79
2021/01/30 02:17:13;;;;;;;0.40;0.40;;;5.50;99.90;;;;;;5098368;28;20823;-79
2021/01/30 02:20:18;;;;;;;0.40;0.40;;;5.50;99.90;;;;;;5080013;28;20464;-80
2021/01/30 02:23:18;;;;;;;0.40;0.40;;;5.50;99.90;;;;;;5096743;28;20435;-84
2021/01/30 02:26:04;;;;;;;0.40;0.40;;;5.50;99.90;;;;;;5096649;28;20440;-84
2021/01/30 02:28:40;;;;;;;0.70;0.47;;;5.50;99.90;;;;;;5096578;28;20954;-85
2021/01/30 02:31:42;;;;;;;2.30;0.40;;;5.40;99.90;;;;;;5079000;28;20988;-84
2021/01/30 02:34:22;;;;;;;0.43;0.43;;;5.40;99.90;;;;;;5096328;28;20439;-85
2021/01/30 02:36:54;;;;;;;0.70;0.60;;;5.30;99.90;;;;;;5096780;28;20888;-85
2021/01/30 02:39:25;;;;;;;0.40;0.40;;;5.20;99.90;;;;;;5096141;28;20470;-79
2021/01/30 02:41:56;;;;;;;1.83;0.60;;;5.10;99.90;;;;;;5080460;28;20462;-79
2021/01/30 02:44:25;;;;;;;0.50;0.50;;;5.10;99.90;;;;;;5096269;28;20447;-79
2021/01/30 02:46:55;;;;;;;0.50;0.40;;;5.00;99.90;;;;;;5096518;28;20444;-79
2021/01/30 02:49:25;;;;;;;0.60;0.53;;;5.00;99.90;;;;;;5096478;28;20464;-79
2021/01/30 02:52:02;;;;;;;2.77;0.60;;;5.00;99.90;;;;;;5096297;28;20460;-84
2021/01/30 02:54:32;;;;;;;0.50;0.50;;;5.00;99.90;;;;;;5095649;28;20443;-85
2021/01/30 02:56:59;;;;;;;0.60;0.50;;;5.10;99.90;;;;;;5096371;28;20448;-84
2021/01/30 02:59:28;;;;;;;0.50;0.50;;;5.10;99.90;;;;;;5096117;28;20873;-84
2021/01/30 03:01:54;;;;;;;1.80;0.50;;;5.20;99.90;;;;;;5095967;28;20450;-85
2021/01/30 03:04:23;;;;;;;0.40;0.40;;;5.20;99.90;;;;;;5095498;28;20489;-79
2021/01/30 03:07:17;;;;;;;0.63;0.53;;;5.20;99.90;;;;;;5096235;28;20451;-79
2021/01/30 03:09:50;;;;;;;1.00;0.50;;;5.30;99.90;;;;;;5093097;28;20802;-79
2021/01/30 03:12:24;;;;;;;0.40;0.40;;;5.30;99.90;;;;;;5095611;28;20476;-79
2021/01/30 03:14:56;;;;;;;1.67;0.70;;;5.30;99.90;;;;;;5096275;28;20482;-79
2021/01/30 03:17:26;;;;;;;0.70;0.50;;;5.40;99.90;;;;;;5095689;28;20452;-79
2021/01/30 03:19:55;;;;;;;0.60;0.50;;;5.40;99.90;;;;;;5095762;28;20476;-79
2021/01/30 03:22:24;;;;;;;0.60;0.50;;;5.40;99.90;;;;;;5095067;28;20436;-79
2021/01/30 03:24:53;;;;;;;0.50;0.40;;;5.40;99.90;;;;;;5094871;28;20437;-85
2021/01/30 03:27:21;;;;;;;0.40;0.40;;;5.40;99.90;;;;;;5095219;28;20476;-85
2021/01/30 03:29:47;;;;;;;0.50;0.40;;;5.50;99.90;;;;;;5094377;28;20481;-84
2021/01/30 03:32:13;;;;;;;0.40;0.40;;;5.50;99.90;;;;;;5095151;28;20464;-84
2021/01/30 03:34:40;;;;;;;0.40;0.40;;;5.60;99.90;;;;;;5095625;28;20436;-85
2021/01/30 03:37:06;;;;;;;0.40;0.40;;;5.50;99.90;;;;;;5095038;28;20443;-80
2021/01/30 03:39:33;;;;;;;0.73;0.40;;;5.50;99.90;;;;;;5095069;28;20794;-84
2021/01/30 03:41:59;;;;;;;0.90;0.50;;;5.50;99.90;;;;;;5095800;28;20498;-85
2021/01/30 03:44:25;;;;;;;1.87;0.50;;;5.50;99.90;;;;;;5094873;28;21008;-79
2021/01/30 03:46:51;;;;;;;0.50;0.40;;;5.50;99.90;;;;;;5095392;28;20488;-84
2021/01/30 03:49:18;;;;;;;0.40;0.40;;;5.50;99.90;;;;;;5095575;28;20460;-85
2021/01/30 03:51:44;;;;;;;0.90;0.37;;;5.50;99.90;;;;;;5095215;28;20452;-79
2021/01/30 03:54:10;;;;;;;0.70;0.40;;;5.50;99.90;;;;;;5095195;28;20458;-84
2021/01/30 03:56:37;;;;;;;0.37;0.30;;;5.60;99.90;;;;;;5095034;28;20478;-79
2021/01/30 03:59:04;;;;;;;0.73;0.60;;;5.50;99.90;;;;;;5094787;28;20463;-79
2021/01/30 04:01:31;;;;;;;1.60;0.57;;;5.50;99.90;;;;;;5094703;28;20946;-79
2021/01/30 04:03:58;;;;;;;2.63;0.40;;;5.50;99.90;;;;;;5094507;28;20447;-79
2021/01/30 04:06:24;;;;;;;0.67;0.50;;;5.50;99.90;;;;;;5094590;28;20470;-79
2021/01/30 04:08:50;;;;;;;1.07;0.43;;;5.50;99.90;;;;;;5095073;28;20444;-79
2021/01/30 04:11:17;;;;;;;1.73;0.43;;;5.50;99.90;;;;;;5095031;28;20440;-84
2021/01/30 04:13:44;;;;;;;0.40;0.40;;;5.50;99.90;;;;;;5094475;28;20476;-85
2021/01/30 04:16:10;;;;;;;0.90;0.40;;;5.50;99.90;;;;;;5095136;28;20982;-85
2021/01/30 04:18:36;;;;;;;0.40;0.30;;;5.50;99.90;;;;;;5094856;28;20444;-84
2021/01/30 04:21:02;;;;;;;1.43;0.50;;;5.50;99.90;;;;;;5094919;28;20525;-80
2021/01/30 04:23:29;;;;;;;2.00;0.40;;;5.50;99.90;;;;;;5094427;28;20805;-85
2021/01/30 04:25:55;;;;;;;0.50;0.40;;;5.50;99.90;;;;;;5094540;28;20484;-85
2021/01/30 04:28:21;;;;;;;1.20;0.50;;;5.50;99.90;;;;;;5094567;28;20501;-80
2021/01/30 04:30:48;;;;;;;3.03;0.47;;;5.50;99.90;;;;;;5094188;28;20468;-84
2021/01/30 04:33:14;;;;;;;3.70;0.50;;;5.40;99.90;;;;;;5093938;28;20826;-80
2021/01/30 04:35:41;;;;;;;1.23;0.60;;;5.40;99.90;;;;;;5094309;28;20440;-80
2021/01/30 04:38:08;;;;;;;2.10;0.60;;;5.40;99.90;;;;;;5094608;28;20452;-80
2021/01/30 04:40:36;;;;;;;0.40;0.40;;;5.40;99.90;;;;;;5094163;28;20464;-80
2021/01/30 04:43:14;;;;;;;2.67;0.40;;;5.40;99.90;;;;;;5093507;28;20433;-79
2021/01/30 04:45:56;;;;;;;2.10;0.57;;;5.40;99.90;;;;;;5094074;28;20462;-85
2021/01/30 04:48:33;;;;;;;0.70;0.50;;;5.40;99.90;;;;;;5093770;28;20448;-80
2021/01/30 04:51:07;;;;;;;0.60;0.47;;;5.40;99.90;;;;;;5094015;28;20459;-79
2021/01/30 04:53:53;;;;;;;0.50;0.50;;;5.40;99.90;;;;;;5093950;28;20471;-80
2021/01/30 04:56:31;;;;;;;0.40;0.40;;;5.40;99.90;;;;;;5094189;28;20808;-85
2021/01/30 04:59:04;;;;;;;1.23;0.53;;;5.40;99.90;;;;;;5094342;28;20784;-85
2021/01/30 05:01:37;;;;;;;2.40;0.53;;;5.40;99.90;;;;;;5093701;28;20463;-85
2021/01/30 05:04:12;;;;;;;2.00;0.50;;;5.40;99.90;;;;;;5093082;28;21000;-80
2021/01/30 05:06:48;;;;;;;4.30;0.60;;;5.40;99.90;;;;;;5073931;28;20434;-80
2021/01/30 05:09:19;;;;;;;0.63;0.63;;;5.30;99.90;;;;;;5092093;28;20470;-79
2021/01/30 05:11:57;;;;;;;0.63;0.57;;;5.30;99.90;;;;;;5093904;28;20785;-84
2021/01/30 05:14:27;;;;;;;2.83;0.80;;;5.30;99.90;;;;;;5093586;28;20443;-85
2021/01/30 05:17:01;;;;;;;2.90;0.97;;;5.30;99.90;;;;;;5093586;28;20452;-85
2021/01/30 05:19:31;;;;;;;1.60;0.70;;;5.30;99.90;;;;;;5073335;28;20478;-79
2021/01/30 05:22:01;;;;;;;2.37;0.60;;;5.20;99.90;;;;;;5087639;28;20436;-85
2021/01/30 05:24:29;;;;;;;1.80;0.67;;;5.20;99.90;;;;;;5093184;28;20450;-85
2021/01/30 05:27:08;;;;;;;2.57;0.70;;;5.20;99.90;;;;;;5093486;28;20482;-80
2021/01/30 05:29:46;;;;;;;4.93;1.17;;;5.20;99.90;;;;;;5092821;28;21002;-79
2021/01/30 05:32:24;;;;;;;3.77;0.90;;;5.20;99.90;;;;;;5093123;28;20532;-85
2021/01/30 05:34:56;;;;;;;6.23;0.60;;;5.30;99.90;;;;;;5083767;28;20857;-85
2021/01/30 05:37:28;;;;;;;1.60;0.70;;;5.20;99.90;;;;;;5092868;28;20944;-79
2021/01/30 05:40:18;;;;;;;6.27;0.80;;;5.30;99.90;;;;;;5093623;28;20460;-79
2021/01/30 05:42:51;;;;;;;0.63;0.63;;;5.20;99.90;;;;;;5093184;28;20797;-84
2021/01/30 05:45:30;;;;;;;2.20;0.60;;;5.20;99.90;;;;;;5092996;28;20432;-85
2021/01/30 05:47:58;;;;;;;4.20;0.90;;;5.10;99.90;;;;;;5093253;28;20501;-79
2021/01/30 05:50:30;;;;;;;3.97;0.80;;;5.10;99.90;;;;;;5093083;28;20495;-79
2021/01/30 05:52:58;;;;;;;2.50;0.80;;;5.10;99.90;;;;;;5092890;28;20468;-79
2021/01/30 05:55:27;;;;;;;3.67;0.83;;;5.10;99.90;;;;;;5092777;28;20448;-79
2021/01/30 05:57:55;;;;;;;4.23;1.07;;;5.10;99.90;;;;;;5092848;28;20451;-79
2021/01/30 06:00:23;;;;;;;6.43;0.80;;;5.10;99.90;;;;;;5092796;28;20467;-79
2021/01/30 06:03:02;;;;;;;4.03;2.43;;;5.10;99.90;;;;;;5093340;28;20942;-85
2021/01/30 06:05:33;;;;;;;1.00;0.90;;;5.10;99.90;;;;;;5092787;28;20459;-79
2021/01/30 06:08:26;;;;;;;3.73;1.20;;;5.10;99.90;;;;;;5093204;28;20792;-79
2021/01/30 06:10:54;;;;;;;4.10;0.80;;;5.10;99.90;;;;;;5093004;28;20865;-79
2021/01/30 06:13:23;;;;;;;2.93;1.13;;;5.00;99.90;;;;;;5092721;28;20472;-84
2021/01/30 06:15:53;;;;;;;6.30;0.70;;;5.00;99.90;;;;;;5093001;28;20441;-84
2021/01/30 06:18:33;;;;;;;3.17;0.80;;;5.10;99.90;;;;;;5092831;28;20440;-79
2021/01/30 06:21:05;;;;;;;1.77;0.70;;;5.10;99.90;;;;;;5094123;28;20490;-85
2021/01/30 06:23:32;;;;;;;2.00;0.80;;;5.10;99.90;;;;;;5092900;28;20923;-80
2021/01/30 06:26:14;;;;;;;2.50;1.10;;;5.10;99.90;;;;;;5092111;28;20467;-79
2021/01/30 06:28:43;;;;;;;6.70;1.10;;;5.10;99.90;;;;;;5092823;28;20435;-79
2021/01/30 06:31:14;;;;;;;3.73;0.77;;;5.10;99.90;;;;;;5092573;28;20554;-79
2021/01/30 06:33:46;;;;;;;2.73;1.03;;;5.10;99.90;;;;;;5092875;28;20464;-80
2021/01/30 06:36:17;;;;;;;6.40;0.93;;;5.10;99.90;;;;;;5092601;28;20459;-79
2021/01/30 06:38:47;;;;;;;1.17;0.93;;;5.20;99.90;;;;;;5092639;28;20444;-84
2021/01/30 06:41:20;;;;;;;4.97;1.00;;;5.10;99.90;;;;;;5092970;28;20444;-79
2021/01/30 06:43:51;;;;;;;5.53;0.90;;;5.10;99.90;;;;;;5092113;28;20467;-79
2021/01/30 06:46:19;;;;;;;1.50;1.17;;;5.10;99.90;;;;;;5093063;28;20440;-79
2021/01/30 06:48:48;;;;;;;1.63;0.80;;;5.10;99.90;;;;;;5092595;28;20440;-79
2021/01/30 06:51:30;;;;;;;4.07;1.70;;;5.10;99.90;;;;;;5092890;28;20448;-84
2021/01/30 06:54:15;;;;;;;8.43;1.47;;;5.10;99.90;;;;;;5102393;28;20487;-78
2021/01/30 06:56:42;;;;;;;2.40;1.37;;;5.20;99.90;;;;;;5093176;28;20462;-87
2021/01/30 06:59:15;;;;;;;9.30;1.07;;;5.10;99.90;;;;;;5092894;28;20544;-85
2021/01/30 07:01:45;;;;;;;1.90;1.10;;;5.10;99.90;;;;;;5092830;28;20448;-84
2021/01/30 07:04:46;;;;;;;2.00;1.00;;;5.10;99.90;;;;;;5093763;28;20436;-84
2021/01/30 07:07:20;;;;;;;3.17;1.27;;;5.20;99.90;;;;;;5096339;28;20428;-85
2021/01/30 07:10:05;;;;;;;4.17;1.63;;;5.20;99.90;;;;;;5095558;28;20462;-79
2021/01/30 07:12:37;;;;;;;1.37;1.03;;;5.20;99.90;;;;;;5096145;28;20529;-84
2021/01/30 07:15:15;;;;;;;2.13;0.97;;;5.20;99.90;;;;;;5086793;28;20432;-85
2021/01/30 07:18:02;;;;;;;6.53;1.00;;;5.20;99.90;;;;;;5096021;28;20931;-85
2021/01/30 07:20:41;;;;;;;3.10;1.27;;;5.20;99.90;;;;;;5095949;28;20521;-84
2021/01/30 07:23:12;;;;;;;3.10;1.10;;;5.20;99.90;;;;;;5095438;28;20444;-85
2021/01/30 07:25:47;;;;;;;4.20;1.40;;;5.20;99.90;;;;;;5095132;28;20533;-80
2021/01/30 07:28:23;;;;;;;2.27;0.83;;;5.20;99.90;;;;;;5095340;28;20444;-79
2021/01/30 07:30:57;;;;;;;4.63;1.20;;;5.20;99.90;;;;;;5096147;28;20467;-84
2021/01/30 07:33:30;;;;;;;7.90;1.17;;;5.30;99.90;;;;;;5095861;28;20472;-84
2021/01/30 07:36:04;;;;;;;3.90;1.10;;;5.30;99.90;;;;;;5095584;28;20459;-84
2021/01/30 07:38:36;;;;;;;6.20;1.57;;;5.40;99.90;;;;;;5095534;28;20504;-83
2021/01/30 07:41:08;;;;;;;2.13;1.00;;;5.50;99.90;;;;;;5095214;28;20464;-83
2021/01/30 07:43:39;;;;;;;10.00;1.30;;;5.50;99.90;;;;;;5094979;28;20536;-79
2021/01/30 07:46:12;;;;;;;3.07;0.93;;;5.50;99.90;;;;;;5095825;28;20436;-84
2021/01/30 07:48:48;;;;;;;5.80;1.03;;;5.60;99.90;;;;;;5095105;28;20804;-83
2021/01/30 07:51:20;;;;;;;3.67;1.37;;;5.60;99.90;;;;;;5095615;28;20800;-84
2021/01/30 07:53:47;;;;;;;4.73;2.07;;;5.60;99.90;;;;;;5107659;28;20475;-78
2021/01/30 07:56:28;;;;;;;9.50;1.40;;;5.70;99.90;;;;;;5096114;28;20436;-78
2021/01/30 07:59:09;;;;;;;3.23;1.30;;;5.60;99.90;;;;;;5095364;28;20436;-78
2021/01/30 08:01:54;;;;;;;8.87;1.50;;;5.70;99.90;;;;;;5095200;28;20443;-79
2021/01/30 08:05:02;;;;;;;5.73;2.33;;;5.70;99.90;;;;;;5094882;28;20436;-78
2021/01/30 08:07:44;;;;;;;10.53;1.57;;;5.70;99.90;;;;;;5094945;28;20447;-79
2021/01/30 08:10:21;;;;;;;3.40;1.80;;;5.80;99.90;;;;;;5094327;28;20834;-78
2021/01/30 08:12:57;;;;;;;2.83;1.13;;;5.80;99.90;;;;;;5095030;28;20468;-78
2021/01/30 08:15:28;;;;;;;6.47;1.37;;;5.80;99.90;;;;;;5094200;28;20432;-78
2021/01/30 08:18:03;;;;;;;5.37;1.53;;;5.90;99.90;;;;;;5095082;28;20435;-79
2021/01/30 08:20:39;;;;;;;4.50;1.00;;;5.90;99.90;;;;;;5094607;28;20479;-78
2021/01/30 08:23:18;;;;;;;2.20;1.03;;;6.00;99.90;;;;;;5094690;28;20429;-79
2021/01/30 08:25:53;;;;;;;2.80;1.00;;;6.00;99.90;;;;;;5093784;28;20815;-83
2021/01/30 08:28:24;;;;;;;4.17;1.13;;;6.10;99.90;;;;;;5095520;28;20749;-84
2021/01/30 08:30:52;;;;;;;4.83;1.07;;;6.10;99.90;;;;;;5094523;28;20986;-84
2021/01/30 08:33:20;;;;;;;3.47;1.10;;;6.10;99.90;;;;;;5094711;28;20467;-84
2021/01/30 08:35:52;;;;;;;6.53;1.10;;;6.10;99.90;;;;;;5094149;28;20978;-83
2021/01/30 08:38:37;;;;;;;6.30;1.30;;;6.00;99.90;;;;;;5094662;28;20436;-83
2021/01/30 08:41:46;;;;;;;10.40;2.00;;;6.00;99.90;;;;;;5094527;28;20472;-83
2021/01/30 08:44:40;;;;;;;4.63;1.20;;;6.00;99.90;;;;;;5095183;28;20425;-83
2021/01/30 08:47:12;;;;;;;3.60;1.70;;;6.00;99.90;;;;;;5091998;28;20452;-83
2021/01/30 08:49:40;;;;;;;3.50;1.33;;;6.10;99.90;;;;;;5094090;28;20472;-83
2021/01/30 08:52:23;;;;;;;3.30;1.33;;;6.00;99.90;;;;;;5094039;28;20995;-83
2021/01/30 08:54:50;;;;;;;2.73;1.10;;;6.00;99.90;;;;;;5094441;28;20486;-83
2021/01/30 08:57:43;;;;;;;3.90;1.60;;;6.10;99.90;;;;;;5094003;28;20958;-83
2021/01/30 09:00:13;;;;;;;4.17;1.33;;;6.20;99.90;;;;;;5094107;28;20987;-82
2021/01/30 09:02:51;;;;;;;5.50;1.23;;;6.20;99.90;;;;;;5095244;28;20444;-83
2021/01/30 09:05:40;;;;;;;7.63;1.30;;;6.20;99.90;;;;;;5094726;28;20455;-83
2021/01/30 09:08:36;;;;;;;8.23;1.30;;;6.30;99.90;;;;;;5094443;28;20558;-83
2021/01/30 09:11:39;;;;;;;2.60;1.10;;;6.40;99.90;;;;;;5094532;28;20545;-83
2021/01/30 09:14:26;;;;;;;6.87;1.53;;;6.40;99.90;;;;;;5094793;28;20816;-83
2021/01/30 09:17:02;;;;;;;11.13;1.43;;;6.40;99.90;;;;;;5095634;28;20428;-83
2021/01/30 09:19:39;;;;;;;7.90;2.17;;;6.40;99.90;;;;;;5094383;28;20506;-83
2021/01/30 09:22:15;;;;;;;4.70;1.40;;;6.40;99.90;;;;;;5093630;28;20930;-83
2021/01/30 09:25:12;;;;;;;5.33;1.30;;;6.50;99.90;;;;;;5093889;28;20432;-83
2021/01/30 09:27:49;;;;;;;5.70;1.47;;;6.50;99.90;;;;;;5092675;28;20493;-83
2021/01/30 09:30:32;;;;;;;4.10;1.40;;;6.50;99.90;;;;;;5093380;28;21025;-83
2021/01/30 09:33:01;;;;;;;14.07;1.73;;;6.60;99.90;;;;;;5091871;28;20480;-83
2021/01/30 09:35:33;;;;;;;5.60;1.47;;;6.70;99.90;;;;;;5093713;28;20505;-83
2021/01/30 09:38:17;;;;;;;1.67;1.27;;;6.70;99.90;;;;;;5093523;28;20456;-83
2021/01/30 09:40:44;;;;;;;3.10;1.50;;;6.70;99.90;;;;;;5093500;28;20475;-83
2021/01/30 09:43:11;;;;;;;8.23;2.17;;;6.70;99.90;;;;;;5092512;28;20482;-79
2021/01/30 09:45:39;;;;;;;5.63;1.10;;;6.70;99.90;;;;;;5093297;28;20886;-78
2021/01/30 09:48:09;;;;;;;4.40;1.20;;;6.80;99.90;;;;;;5093549;28;20451;-79
2021/01/30 09:50:38;;;;;;;5.23;1.60;;;6.80;99.90;;;;;;5093520;28;20503;-78
2021/01/30 09:53:07;;;;;;;3.57;1.37;;;6.90;99.90;;;;;;5094794;28;20479;-84
2021/01/30 09:55:34;;;;;;;4.60;1.53;;;7.00;99.90;;;;;;5093524;28;20440;-84
2021/01/30 09:58:07;;;;;;;7.60;1.43;;;6.90;99.90;;;;;;5093359;28;20458;-84
2021/01/30 10:00:36;;;;;;;3.20;1.30;;;6.90;99.90;;;;;;5093440;28;20474;-79
2021/01/30 10:03:05;;;;;;;8.53;1.30;;;6.90;99.90;;;;;;5093091;28;20448;-78
2021/01/30 10:05:31;;;;;;;3.73;1.20;;;6.90;99.90;;;;;;5093389;28;20448;-79
2021/01/30 10:07:58;;;;;;;5.50;1.77;;;6.90;99.90;;;;;;5093212;28;20455;-79
2021/01/30 10:10:30;;;;;;;8.20;1.30;;;6.90;99.90;;;;;;5093469;28;20823;-79
2021/01/30 10:12:59;;;;;;;4.10;1.90;;;6.90;99.90;;;;;;5093006;28;21064;-80
2021/01/30 10:15:29;;;;;;;8.27;2.07;;;6.80;99.90;;;;;;5093063;28;20947;-79
2021/01/30 10:18:02;;;;;;;6.50;1.60;;;6.80;99.90;;;;;;5093483;28;20432;-79
2021/01/30 10:20:40;;;;;;;1.73;1.37;;;6.70;99.90;;;;;;5092906;28;20982;-79
2021/01/30 10:23:09;;;;;;;2.27;1.30;;;6.70;99.90;;;;;;5093388;28;20428;-79
2021/01/30 10:25:35;;;;;;;2.33;1.17;;;6.80;99.90;;;;;;5092745;28;20452;-80
2021/01/30 10:28:08;;;;;;;8.17;1.30;;;6.90;99.90;;;;;;5093164;28;20439;-79
2021/01/30 10:30:35;;;;;;;8.83;1.83;;;6.90;99.90;;;;;;5093119;28;20826;-80
2021/01/30 10:33:06;;;;;;;5.80;1.57;;;7.00;99.90;;;;;;5093166;28;20487;-85
2021/01/30 10:35:47;;;;;;;3.70;1.83;;;7.00;99.90;;;;;;5093541;28;20436;-86
2021/01/30 10:38:16;;;;;;;7.53;2.47;;;7.00;99.90;;;;;;5094858;28;20903;-78
2021/01/30 10:40:45;;;;;;;6.47;1.43;;;7.00;99.90;;;;;;5096594;28;20994;-83
2021/01/30 10:43:22;;;;;;;7.00;1.30;;;7.00;99.90;;;;;;5097029;28;20444;-84
2021/01/30 10:45:54;;;;;;;7.40;2.80;;;6.90;99.90;;;;;;5096748;28;20980;-86
2021/01/30 10:48:23;;;;;;;6.73;2.40;;;6.90;99.90;;;;;;5097047;28;20431;-80
2021/01/30 10:50:50;;;;;;;5.90;1.70;;;7.00;99.90;;;;;;5096390;28;20596;-80
2021/01/30 10:53:23;;;;;;;4.47;1.80;;;6.90;99.90;;;;;;5096676;28;20484;-79
2021/01/30 10:55:52;;;;;;;5.97;1.30;;;6.90;99.90;;;;;;5096728;28;20451;-79
2021/01/30 10:58:28;;;;;;;6.30;2.00;;;6.90;99.90;;;;;;5096300;28;20951;-78
2021/01/30 11:00:57;;;;;;;3.77;1.83;;;6.90;99.90;;;;;;5096525;28;20516;-79
2021/01/30 11:03:27;;;;;;;7.83;1.70;;;6.90;99.90;;;;;;5096540;28;20436;-79
2021/01/30 11:05:57;;;;;;;6.17;2.40;;;6.90;99.90;;;;;;5096219;28;20805;-78
2021/01/30 11:08:27;;;;;;;7.17;2.27;;;7.00;99.90;;;;;;5096231;28;20463;-79
2021/01/30 11:11:01;;;;;;;9.37;2.00;;;7.00;99.90;;;;;;5096353;28;20468;-78
2021/01/30 11:13:33;;;;;;;4.70;1.70;;;7.10;99.90;;;;;;5095955;28;20978;-78
2021/01/30 11:16:06;;;;;;;7.43;1.90;;;7.10;99.90;;;;;;5096309;28;20441;-78
2021/01/30 11:18:37;;;;;;;7.10;1.40;;;7.20;99.90;;;;;;5096513;28;20443;-78
2021/01/30 11:21:06;;;;;;;6.80;1.83;;;7.20;99.90;;;;;;5095884;28;20471;-78
2021/01/30 11:23:45;;;;;;;7.33;1.50;;;7.20;99.90;;;;;;5095888;28;20523;-78
2021/01/30 11:26:35;;;;;;;8.93;2.13;;;7.20;99.90;;;;;;5095740;28;20479;-78
2021/01/30 11:29:04;;;;;;;6.50;2.07;;;7.20;99.90;;;;;;5095621;28;21000;-78
2021/01/30 11:31:31;;;;;;;2.00;1.43;;;7.10;99.90;;;;;;5096004;28;20451;-78
2021/01/30 11:33:59;;;;;;;5.37;1.50;;;7.10;99.90;;;;;;5096180;28;20529;-78
2021/01/30 11:36:25;;;;;;;6.13;1.57;;;7.10;99.90;;;;;;5095877;28;20444;-78
2021/01/30 11:38:57;;;;;;;4.10;1.30;;;7.20;99.90;;;;;;5095708;28;20448;-79
2021/01/30 11:41:23;;;;;;;5.63;1.80;;;7.20;99.90;;;;;;5095428;28;20818;-83
2021/01/30 11:43:49;;;;;;;3.80;0.93;;;7.30;99.90;;;;;;5095790;28;20448;-82
2021/01/30 11:46:16;;;;;;;4.73;0.80;;;7.30;99.90;;;;;;5095806;28;21008;-78
2021/01/30 11:48:43;;;;;;;10.90;1.20;;;7.30;99.90;;;;;;5094978;28;20501;-84
2021/01/30 11:51:19;;;;;;;3.93;0.97;;;7.30;99.90;;;;;;5094844;28;20459;-85
2021/01/30 11:53:46;;;;;;;2.80;0.70;;;7.30;99.90;;;;;;5095525;28;20475;-78
2021/01/30 11:56:12;;;;;;;9.00;1.00;;;7.20;99.90;;;;;;5095578;28;20440;-79
2021/01/30 11:58:38;;;;;;;1.83;1.30;;;7.20;99.90;;;;;;5096253;28;20455;-82
2021/01/30 12:01:04;;;;;;;2.60;1.13;;;7.10;99.90;;;;;;5095410;28;20533;-85
2021/01/30 12:03:31;;;;;;;14.17;9.60;;;7.10;99.90;;;;;;5095503;28;20504;-85
2021/01/30 12:05:58;;;;;;;4.10;2.80;;;7.10;99.90;;;;;;5095246;28;20447;-85
2021/01/30 12:08:26;;;;;;;3.57;1.20;;;7.10;99.90;;;;;;5095433;28;20951;-85
2021/01/30 12:10:53;;;;;;;2.30;1.70;;;7.10;99.90;;;;;;5095247;28;20479;-85
2021/01/30 12:13:20;;;;;;;3.47;0.80;;;7.10;99.90;;;;;;5095223;28;20470;-85
2021/01/30 12:15:46;;;;;;;1.27;0.80;;;7.00;99.90;;;;;;5095172;28;20440;-85
2021/01/30 12:18:16;;;;;;;3.07;1.13;;;6.90;99.90;;;;;;5095173;28;20448;-86
2021/01/30 12:20:43;;;;;;;2.20;0.77;;;6.90;99.90;;;;;;5094756;28;21031;-85
2021/01/30 12:23:10;;;;;;;1.40;0.70;;;6.90;99.90;;;;;;5095012;28;20428;-80
2021/01/30 12:25:37;;;;;;;5.53;0.90;;;6.90;99.90;;;;;;5094770;28;20425;-80
2021/01/30 12:28:05;;;;;;;2.93;1.60;;;6.90;99.90;;;;;;5094607;28;20436;-80
2021/01/30 12:30:35;;;;;;;1.30;0.80;;;7.00;99.90;;;;;;5094746;28;20479;-79
2021/01/30 12:33:01;;;;;;;3.10;1.10;;;6.90;99.90;;;;;;5094499;28;20484;-79
2021/01/30 12:35:30;;;;;;;1.17;0.87;;;6.90;99.90;;;;;;5094449;28;20911;-79
2021/01/30 12:37:58;;;;;;;3.80;1.10;;;6.90;99.90;;;;;;5094717;28;20436;-76
2021/01/30 12:40:27;;;;;;;1.43;0.90;;;6.80;99.90;;;;;;5094873;28;20478;-77
2021/01/30 12:42:54;;;;;;;3.73;0.80;;;6.70;99.90;;;;;;5094678;28;20425;-83
2021/01/30 12:45:20;;;;;;;2.17;0.90;;;6.70;99.90;;;;;;5094731;28;20428;-85
2021/01/30 12:47:47;;;;;;;1.67;0.90;;;6.60;99.90;;;;;;5094481;28;20436;-86
2021/01/30 12:50:15;;;;;;;4.37;1.77;;;6.60;99.90;;;;;;5094322;28;20478;-86
2021/01/30 12:52:41;;;;;;;1.80;1.30;;;6.50;99.90;;;;;;5094275;28;20464;-85
2021/01/30 12:55:09;;;;;;;1.13;0.90;;;6.50;99.90;;;;;;5094232;28;20428;-85
2021/01/30 12:57:35;;;;;;;4.97;3.23;;;6.50;99.90;;;;;;5093980;28;20911;-85
2021/01/30 13:00:05;;;;;;;4.33;2.80;;;6.40;99.90;;;;;;5094084;28;20475;-85
2021/01/30 13:02:31;;;;;;;2.23;1.07;;;6.30;99.90;;;;;;5094114;28;20810;-85
2021/01/30 13:04:57;;;;;;;2.90;2.23;;;6.40;99.90;;;;;;5094005;28;20782;-79
2021/01/30 13:07:23;;;;;;;10.13;3.10;;;6.30;99.90;;;;;;5093855;28;20985;-79
2021/01/30 13:09:50;;;;;;;3.77;3.13;;;6.30;99.90;;;;;;5094080;28;20468;-80
2021/01/30 13:12:17;;;;;;;4.23;2.30;;;6.30;99.90;;;;;;5093816;28;20926;-78
2021/01/30 13:14:43;;;;;;;2.63;1.97;;;6.30;99.90;;;;;;5093772;28;20472;-78
2021/01/30 13:17:11;;;;;;;5.07;1.93;;;6.30;99.90;;;;;;5093577;28;20913;-78
2021/01/30 13:19:37;;;;;;;2.73;1.70;;;6.30;99.90;;;;;;5093416;28;20472;-78
2021/01/30 13:22:04;;;;;;;5.63;2.60;;;6.30;99.90;;;;;;5093788;28;20795;-78